createdAt,value
2018-03-22T00:05:08.178Z,8.43
2018-03-22T00:10:58.921Z,7.65
2018-03-22T00:16:49.555Z,7.21
2018-03-22T00:22:40.266Z,7.8
2018-03-22T00:28:30.990Z,6.69
2018-03-22T00:34:21.663Z,6.48
2018-03-22T00:40:12.312Z,6.58
2018-03-22T00:46:03.026Z,7.79
2018-03-22T00:51:53.712Z,6.37
2018-03-22T00:57:44.364Z,6.96
2018-03-22T01:03:35.099Z,6.41
2018-03-22T01:09:25.851Z,6.72
2018-03-22T01:15:16.425Z,7.14
2018-03-22T01:21:07.157Z,5.24
2018-03-22T01:26:57.850Z,6.84
2018-03-22T01:32:48.519Z,6.01
2018-03-22T01:38:39.213Z,6.84
2018-03-22T01:44:29.944Z,6.67
2018-03-22T01:50:20.583Z,5.68
2018-03-22T01:56:11.283Z,6.41
2018-03-22T02:02:02.031Z,7.11
2018-03-22T02:07:52.704Z,7.12
2018-03-22T02:13:43.341Z,6.6
2018-03-22T02:19:34.021Z,6.35
2018-03-22T02:25:24.728Z,6.11
2018-03-22T02:31:15.419Z,5.86
2018-03-22T02:37:06.106Z,6.45
2018-03-22T02:42:56.800Z,5.93
2018-03-22T02:48:47.474Z,6.25
2018-03-22T02:54:38.176Z,7.04
2018-03-22T03:00:28.939Z,6.65
2018-03-22T03:06:19.517Z,6.13
2018-03-22T03:12:10.248Z,5.22
2018-03-22T03:18:00.892Z,5.6
2018-03-22T03:23:51.576Z,6.83
2018-03-22T03:29:42.268Z,6.38
2018-03-22T03:35:33.010Z,7.13
2018-03-22T03:41:23.681Z,7.36
2018-03-22T03:47:14.377Z,7.15
2018-03-22T03:53:05.129Z,6.62
2018-03-22T03:58:55.781Z,6.66
2018-03-22T04:04:46.416Z,7.05
2018-03-22T04:10:37.121Z,7.54
2018-03-22T04:16:27.786Z,6.14
2018-03-22T04:22:18.513Z,7.28
2018-03-22T04:28:09.184Z,6.78
2018-03-22T04:33:59.890Z,6.68
2018-03-22T04:39:50.586Z,7.36
2018-03-22T04:45:41.216Z,7
2018-03-22T04:51:31.969Z,8
2018-03-22T04:57:22.604Z,7.87
2018-03-22T05:03:13.294Z,6.4
2018-03-22T05:09:03.973Z,7.31
2018-03-22T05:14:54.639Z,6.75
2018-03-22T05:20:45.335Z,6.94
2018-03-22T05:26:36.014Z,8
2018-03-22T05:32:26.732Z,6.99
2018-03-22T05:38:17.418Z,6.83
2018-03-22T05:44:08.067Z,5.95
2018-03-22T05:49:58.761Z,6.73
2018-03-22T05:55:49.432Z,6.82
2018-03-22T06:01:40.106Z,6.69
2018-03-22T06:07:30.870Z,7.26
2018-03-22T06:13:21.504Z,6.85
2018-03-22T06:19:12.184Z,6.97
2018-03-22T06:25:02.874Z,6.62
2018-03-22T06:30:53.554Z,6.59
2018-03-22T06:36:44.238Z,6.1
2018-03-22T06:42:34.903Z,6.37
2018-03-22T06:48:25.604Z,6.49
2018-03-22T06:54:16.294Z,6.13
2018-03-22T07:00:06.968Z,6.3
2018-03-22T07:05:57.708Z,6.69
2018-03-22T07:11:48.375Z,5.17
2018-03-22T07:17:39.053Z,5.19
2018-03-22T07:23:29.718Z,5.21
2018-03-22T07:29:20.422Z,5.67
2018-03-22T07:35:11.165Z,6.1
2018-03-22T07:41:01.837Z,6.36
2018-03-22T07:46:52.459Z,6.01
2018-03-22T07:52:43.149Z,5.77
2018-03-22T07:58:33.819Z,5.91
2018-03-22T08:04:24.554Z,5.52
2018-03-22T08:10:15.203Z,5.53
2018-03-22T08:16:05.888Z,5.47
2018-03-22T08:21:56.601Z,4.82
2018-03-22T08:27:47.280Z,6.28
2018-03-22T08:33:37.959Z,5.42
2018-03-22T08:39:28.647Z,5.91
2018-03-22T08:45:19.337Z,5.33
2018-03-22T08:51:10.021Z,4.76
2018-03-22T08:57:00.713Z,5.32
2018-03-22T09:02:51.364Z,5.29
2018-03-22T09:08:42.146Z,5.82
2018-03-22T09:14:32.799Z,4.91
2018-03-22T09:20:23.456Z,5.13
2018-03-22T09:26:14.155Z,4.1
2018-03-22T09:32:04.872Z,5.38
2018-03-22T09:37:55.517Z,4.81
2018-03-22T09:43:46.231Z,4.74
2018-03-22T09:49:36.912Z,4.89
2018-03-22T09:55:27.624Z,4.43
2018-03-22T10:01:18.377Z,4.97
2018-03-22T10:07:09.061Z,5.1
2018-03-22T10:12:59.700Z,4.55
2018-03-22T10:18:50.392Z,4.94
2018-03-22T10:24:41.106Z,4.49
2018-03-22T10:30:31.815Z,6.12
2018-03-22T10:36:22.581Z,4.91
2018-03-22T10:42:13.242Z,4.24
2018-03-22T10:48:03.965Z,4.77
2018-03-22T10:53:54.682Z,4.54
2018-03-22T10:59:45.329Z,4.3
2018-03-22T11:05:36.058Z,4.77
2018-03-22T11:11:26.721Z,4.4
2018-03-22T11:17:17.431Z,4.49
2018-03-22T11:23:08.158Z,4.76
2018-03-22T11:28:58.840Z,4.3
2018-03-22T11:34:49.554Z,4.64
2018-03-22T11:40:40.260Z,4.97
2018-03-22T11:46:30.986Z,4.35
2018-03-22T11:52:21.685Z,4.15
2018-03-22T11:58:12.379Z,5
2018-03-22T12:04:03.073Z,5.01
2018-03-22T12:09:53.811Z,4.39
2018-03-22T12:15:44.500Z,4.82
2018-03-22T12:21:35.228Z,5.11
2018-03-22T12:27:26.028Z,4.76
2018-03-22T12:33:16.715Z,4.88
2018-03-22T12:39:07.360Z,5.12
2018-03-22T12:44:58.092Z,4.29
2018-03-22T12:50:48.762Z,5.68
2018-03-22T12:56:39.494Z,5.38
2018-03-22T13:02:30.268Z,4.47
2018-03-22T13:08:20.914Z,6.04
2018-03-22T13:14:11.619Z,4.89
2018-03-22T13:20:02.330Z,4.81
2018-03-22T13:25:53.065Z,4.3
2018-03-22T13:31:43.750Z,4.35
2018-03-22T13:37:34.511Z,3.61
2018-03-22T13:43:25.258Z,3.93
2018-03-22T13:49:15.932Z,3.34
2018-03-22T13:55:06.581Z,4.2
2018-03-22T14:00:57.323Z,3.48
2018-03-22T14:06:48.025Z,3.71
2018-03-22T14:12:38.808Z,3.1
2018-03-22T14:18:29.516Z,3.68
2018-03-22T14:24:20.200Z,3.03
2018-03-22T14:30:10.944Z,2.61
2018-03-22T14:36:01.708Z,2.64
2018-03-22T14:41:52.457Z,3.19
2018-03-22T14:47:43.185Z,2.9
2018-03-22T14:53:33.902Z,3.59
2018-03-22T14:59:24.611Z,2.56
2018-03-22T15:05:15.342Z,2.95
2018-03-22T15:11:06.121Z,3.22
2018-03-22T15:16:56.849Z,2.62
2018-03-22T15:22:47.589Z,2.54
2018-03-22T15:28:38.285Z,2.79
2018-03-22T15:34:29.068Z,3.04
2018-03-22T15:40:19.796Z,2.72
2018-03-22T15:46:10.477Z,2.85
2018-03-22T15:52:01.226Z,3.27
2018-03-22T15:57:51.977Z,3.27
2018-03-22T16:03:42.696Z,3.06
2018-03-22T16:09:33.425Z,3.95
2018-03-22T16:15:24.147Z,4.26
2018-03-22T16:21:14.933Z,4.81
2018-03-22T16:27:05.621Z,4.68
2018-03-22T16:32:56.334Z,4.36
2018-03-22T16:38:47.046Z,4.37
2018-03-22T16:44:37.812Z,5.54
2018-03-22T16:50:28.505Z,6.12
2018-03-22T16:56:19.207Z,5.64
2018-03-22T17:02:09.920Z,4.83
2018-03-22T17:08:00.669Z,5.91
2018-03-22T17:13:51.372Z,5.57
2018-03-22T17:19:42.012Z,5.5
2018-03-22T17:25:32.768Z,5.01
2018-03-22T17:31:23.488Z,5.59
2018-03-22T17:37:14.196Z,5.94
2018-03-22T17:43:04.873Z,5.94
2018-03-22T17:48:55.576Z,6.09
2018-03-22T17:54:46.293Z,6.97
2018-03-22T18:00:37.031Z,6.22
2018-03-22T18:06:27.680Z,9.45
2018-03-22T18:12:18.409Z,6.06
2018-03-22T18:18:09.104Z,10.39
2018-03-22T18:23:59.801Z,6.57
2018-03-22T18:29:50.598Z,6.62
2018-03-22T18:35:41.201Z,7.06
2018-03-22T18:41:31.865Z,7.5
2018-03-22T18:47:22.594Z,8.09
2018-03-22T18:53:13.324Z,8.18
2018-03-22T18:59:04.024Z,10.45
2018-03-22T19:04:54.706Z,7.64
2018-03-22T19:10:45.400Z,8.39
2018-03-22T19:16:36.136Z,10.6
2018-03-22T19:22:26.789Z,7.72
2018-03-22T19:28:17.498Z,8.07
2018-03-22T19:34:08.192Z,10
2018-03-22T19:39:58.877Z,7.58
2018-03-22T19:45:49.570Z,9.28
2018-03-22T19:51:40.323Z,8.42
2018-03-22T19:57:30.982Z,8.51
2018-03-22T20:03:21.712Z,10.14
2018-03-22T20:09:12.481Z,9.88
2018-03-22T20:15:03.121Z,8.6
2018-03-22T20:20:53.793Z,10.64
2018-03-22T20:26:44.540Z,9.73
2018-03-22T20:32:35.236Z,9.16
2018-03-22T20:38:25.891Z,8.8
2018-03-22T20:44:16.609Z,9.15
2018-03-22T20:50:07.329Z,9.19
2018-03-22T20:55:58.018Z,9.31
2018-03-22T21:01:48.808Z,8.52
2018-03-22T21:07:39.501Z,9.69
2018-03-22T21:13:30.212Z,8.9
2018-03-22T21:19:20.794Z,8.23
2018-03-22T21:25:11.494Z,9.54
2018-03-22T21:31:02.233Z,9.86
2018-03-22T21:36:52.905Z,9.31
2018-03-22T21:42:43.674Z,11.58
2018-03-22T21:48:34.303Z,9.02
2018-03-22T21:54:25.059Z,9.31
2018-03-22T22:00:15.753Z,8.85
2018-03-22T22:06:06.424Z,9.76
2018-03-22T22:11:57.151Z,9.67
2018-03-22T22:17:47.836Z,10.06
2018-03-22T22:23:38.551Z,10.56
2018-03-22T22:29:29.253Z,10.36
2018-03-22T22:35:19.958Z,9.91
2018-03-22T22:41:10.671Z,9.54
2018-03-22T22:47:01.344Z,10.43
2018-03-22T22:52:52.049Z,14.47
2018-03-22T22:58:42.798Z,9.59
2018-03-22T23:04:33.491Z,10
2018-03-22T23:10:24.211Z,9.51
2018-03-22T23:16:14.875Z,9.34
2018-03-22T23:22:05.575Z,9.77
2018-03-22T23:27:56.270Z,9.79
2018-03-22T23:33:46.976Z,10
2018-03-22T23:39:37.717Z,10.26
2018-03-22T23:45:28.368Z,9.85
2018-03-22T23:51:19.063Z,9.09
2018-03-22T23:57:09.791Z,9.6
